createdAt,value
2022-10-17T00:01:47.739Z,98100.19
2022-10-17T00:03:55.845Z,98105.00
2022-10-17T00:06:09.401Z,98100.22
2022-10-17T00:08:20.236Z,98102.25
2022-10-17T00:10:28.891Z,98106.09
2022-10-17T00:12:38.081Z,98101.59
2022-10-17T00:14:46.418Z,98099.69
2022-10-17T00:16:57.188Z,98098.19
2022-10-17T00:19:05.614Z,98098.41
2022-10-17T00:21:19.445Z,98099.06
2022-10-17T00:23:28.891Z,98098.19
2022-10-17T00:25:37.577Z,98100.56
2022-10-17T00:27:45.939Z,98107.81
2022-10-17T00:29:56.323Z,98127.66
2022-10-17T00:32:07.333Z,98127.88
2022-10-17T00:34:15.479Z,98133.72
2022-10-17T00:36:26.442Z,98135.78
2022-10-17T00:38:35.235Z,98139.31
2022-10-17T00:40:43.878Z,98138.97
2022-10-17T00:42:53.379Z,98138.34
2022-10-17T00:45:10.189Z,98130.75
2022-10-17T00:47:24.260Z,98135.00
2022-10-17T00:49:37.513Z,98136.22
2022-10-17T00:51:49.722Z,98129.09
2022-10-17T00:53:58.780Z,98127.47
2022-10-17T00:56:07.182Z,98121.16
2022-10-17T00:58:15.704Z,98121.16
2022-10-17T01:00:24.548Z,98122.53
2022-10-17T01:02:35.783Z,98120.59
2022-10-17T01:04:46.063Z,98128.81
2022-10-17T01:06:54.278Z,98126.38
2022-10-17T01:09:02.371Z,98129.50
2022-10-17T01:11:19.270Z,98120.97
2022-10-17T01:13:37.306Z,98115.84
2022-10-17T01:15:58.093Z,98115.09
2022-10-17T01:18:16.099Z,98121.28
2022-10-17T01:20:49.192Z,98117.97
2022-10-17T01:23:10.463Z,98119.13
2022-10-17T01:25:32.144Z,98116.88
2022-10-17T01:28:04.184Z,98108.22
2022-10-17T01:30:38.908Z,98113.69
2022-10-17T01:32:57.816Z,98108.13
2022-10-17T01:35:14.270Z,98106.00
2022-10-17T01:37:30.284Z,98105.03
2022-10-17T01:39:47.747Z,98103.09
2022-10-17T01:42:05.401Z,98099.91
2022-10-17T01:44:18.887Z,98095.34
2022-10-17T01:46:31.660Z,98088.19
2022-10-17T01:48:45.919Z,98092.22
2022-10-17T01:51:01.249Z,98082.81
2022-10-17T01:53:15.820Z,98080.34
2022-10-17T01:55:29.304Z,98081.19
2022-10-17T01:57:41.453Z,98075.88
2022-10-17T02:00:04.261Z,98073.00
2022-10-17T02:02:23.162Z,98066.28
2022-10-17T02:04:34.412Z,98066.47
2022-10-17T02:06:42.716Z,98063.69
2022-10-17T02:08:55.170Z,98056.31
2022-10-17T02:11:10.425Z,98058.34
2022-10-17T02:13:29.605Z,98054.16
2022-10-17T02:16:02.795Z,98048.94
2022-10-17T02:18:29.609Z,98042.41
2022-10-17T02:20:49.190Z,98041.16
2022-10-17T02:23:02.173Z,98042.75
2022-10-17T02:25:16.888Z,98048.28
2022-10-17T02:27:36.474Z,98046.16
2022-10-17T02:29:52.417Z,98038.72
2022-10-17T02:32:06.096Z,98043.28
2022-10-17T02:34:19.990Z,98049.81
2022-10-17T02:36:37.887Z,98048.50
2022-10-17T02:38:48.717Z,98055.19
2022-10-17T02:40:57.669Z,98041.41
2022-10-17T02:43:06.097Z,98048.19
2022-10-17T02:45:15.221Z,98052.25
2022-10-17T02:47:29.905Z,98046.78
2022-10-17T02:49:43.286Z,98054.69
2022-10-17T02:51:59.024Z,98049.88
2022-10-17T02:54:13.828Z,98049.09
2022-10-17T02:56:24.138Z,98055.50
2022-10-17T02:58:36.739Z,98054.34
2022-10-17T03:00:45.876Z,98049.31
2022-10-17T03:02:56.835Z,98050.28
2022-10-17T03:05:05.259Z,98049.72
2022-10-17T03:07:16.521Z,98043.72
2022-10-17T03:09:25.653Z,98044.69
2022-10-17T03:11:34.243Z,98049.81
2022-10-17T03:13:42.809Z,98049.38
2022-10-17T03:15:52.007Z,98054.81
2022-10-17T03:18:01.643Z,98051.28
2022-10-17T03:20:11.420Z,98054.34
2022-10-17T03:22:22.564Z,98052.63
2022-10-17T03:24:30.978Z,98050.34
2022-10-17T03:26:39.992Z,98051.63
2022-10-17T03:28:51.961Z,98060.06
2022-10-17T03:31:03.375Z,98064.75
2022-10-17T03:33:11.617Z,98069.91
2022-10-17T03:35:20.293Z,98079.13
2022-10-17T03:37:35.193Z,98070.56
2022-10-17T03:39:43.469Z,98080.38
2022-10-17T03:41:51.777Z,98068.00
2022-10-17T03:44:00.028Z,98075.31
2022-10-17T03:46:09.850Z,98082.47
2022-10-17T03:48:19.424Z,98086.09
2022-10-17T03:50:27.907Z,98072.97
2022-10-17T03:52:40.023Z,98078.47
2022-10-17T03:54:48.458Z,98078.66
2022-10-17T03:56:59.261Z,98078.19
2022-10-17T03:59:08.245Z,98086.19
2022-10-17T04:01:22.180Z,98082.66
2022-10-17T04:03:30.943Z,98087.72
2022-10-17T04:05:39.205Z,98082.28
2022-10-17T04:07:49.939Z,98083.91
2022-10-17T04:10:01.849Z,98086.19
2022-10-17T04:12:10.615Z,98080.75
2022-10-17T04:14:19.029Z,98076.38
2022-10-17T04:16:27.745Z,98079.34
2022-10-17T04:18:42.518Z,98084.31
2022-10-17T04:20:51.073Z,98083.91
2022-10-17T04:23:02.133Z,98095.41
2022-10-17T04:25:11.308Z,98092.75
2022-10-17T04:27:22.761Z,98093.16
2022-10-17T04:29:31.406Z,98087.81
2022-10-17T04:31:48.185Z,98091.63
2022-10-17T04:34:01.347Z,98090.47
2022-10-17T04:36:11.344Z,98090.47
2022-10-17T04:38:26.233Z,98095.13
2022-10-17T04:40:36.823Z,98102.66
2022-10-17T04:42:45.365Z,98097.91
2022-10-17T04:44:56.928Z,98104.16
2022-10-17T04:47:07.436Z,98108.63
2022-10-17T04:49:16.488Z,98100.91
2022-10-17T04:51:28.388Z,98108.25
2022-10-17T04:54:02.238Z,98102.94
2022-10-17T04:56:15.258Z,98102.38
2022-10-17T04:58:25.426Z,98107.69
2022-10-17T05:00:33.760Z,98098.81
2022-10-17T05:02:46.885Z,98101.78
2022-10-17T05:04:55.943Z,98098.28
2022-10-17T05:07:04.338Z,98104.06
2022-10-17T05:09:25.059Z,98101.78
2022-10-17T05:11:33.661Z,98093.91
2022-10-17T05:13:42.488Z,98104.88
2022-10-17T05:15:50.874Z,98105.28
2022-10-17T05:17:59.468Z,98102.53
2022-10-17T05:20:11.897Z,98101.41
2022-10-17T05:22:21.267Z,98104.72
2022-10-17T05:24:33.139Z,98103.69
2022-10-17T05:26:41.972Z,98097.31
2022-10-17T05:28:52.715Z,98101.59
2022-10-17T05:31:11.765Z,98097.13
2022-10-17T05:33:22.073Z,98092.38
2022-10-17T05:35:30.630Z,98097.13
2022-10-17T05:37:39.377Z,98101.59
2022-10-17T05:39:51.567Z,98103.66
2022-10-17T05:42:01.267Z,98103.47
2022-10-17T05:44:10.085Z,98107.00
2022-10-17T05:46:25.037Z,98112.13
2022-10-17T05:48:33.377Z,98119.44
2022-10-17T05:50:43.123Z,98114.69
2022-10-17T05:52:57.768Z,98113.38
2022-10-17T05:55:10.425Z,98115.84
2022-10-17T05:57:18.617Z,98121.47
2022-10-17T05:59:29.165Z,98119.28
2022-10-17T06:01:48.334Z,98119.63
2022-10-17T06:03:57.684Z,98127.06
2022-10-17T06:06:08.452Z,98134.28
2022-10-17T06:08:18.153Z,98136.84
2022-10-17T06:10:29.408Z,98142.75
2022-10-17T06:12:37.874Z,98141.50
2022-10-17T06:14:46.061Z,98142.38
2022-10-17T06:16:55.528Z,98145.91
2022-10-17T06:19:03.996Z,98145.13
2022-10-17T06:21:18.165Z,98154.66
2022-10-17T06:23:28.967Z,98152.66
2022-10-17T06:25:44.635Z,98154.81
2022-10-17T06:30:23.309Z,98156.91
2022-10-17T06:32:31.880Z,98152.09
2022-10-17T06:34:40.659Z,98156.25
2022-10-17T06:36:49.090Z,98163.38
2022-10-17T06:38:59.310Z,98160.75
2022-10-17T06:41:20.439Z,98171.75
2022-10-17T06:43:30.730Z,98169.00
2022-10-17T06:45:58.751Z,98178.41
2022-10-17T06:48:20.627Z,98190.22
2022-10-17T06:50:44.647Z,98191.72
2022-10-17T06:52:57.610Z,98186.91
2022-10-17T06:55:24.345Z,98195.47
2022-10-17T06:57:53.393Z,98200.97
2022-10-17T07:00:23.681Z,98204.19
2022-10-17T07:02:35.454Z,98199.44
2022-10-17T07:04:43.729Z,98208.97
2022-10-17T07:06:54.011Z,98214.00
2022-10-17T07:09:06.819Z,98221.25
2022-10-17T07:11:20.144Z,98231.06
2022-10-17T07:13:38.120Z,98228.00
2022-10-17T07:15:47.195Z,98239.25
2022-10-17T07:17:55.679Z,98244.63
2022-10-17T07:20:04.118Z,98254.53
2022-10-17T07:22:15.705Z,98252.81
2022-10-17T07:24:27.820Z,98262.41
2022-10-17T07:26:43.334Z,98272.91
2022-10-17T07:28:56.835Z,98277.66
2022-10-17T07:31:27.622Z,98290.94
2022-10-17T07:33:36.054Z,98298.56
2022-10-17T07:35:44.687Z,98304.25
2022-10-17T07:37:52.861Z,98314.63
2022-10-17T07:40:02.706Z,98311.34
2022-10-17T07:42:12.753Z,98329.06
2022-10-17T07:44:23.693Z,98334.94
2022-10-17T07:46:33.775Z,98338.63
2022-10-17T07:48:42.991Z,98344.97
2022-10-17T07:50:52.030Z,98344.59
2022-10-17T07:53:00.303Z,98355.28
2022-10-17T07:55:10.264Z,98349.53
2022-10-17T07:57:18.540Z,98354.34
2022-10-17T07:59:29.495Z,98360.03
2022-10-17T08:01:38.101Z,98366.97
2022-10-17T08:03:48.783Z,98359.34
2022-10-17T08:06:00.823Z,98363.41
2022-10-17T08:08:08.917Z,98371.97
2022-10-17T08:10:18.741Z,98370.31
2022-10-17T08:12:27.091Z,98371.69
2022-10-17T08:14:39.492Z,98371.50
2022-10-17T08:16:47.985Z,98383.13
2022-10-17T08:18:56.247Z,98381.53
2022-10-17T08:21:06.355Z,98381.50
2022-10-17T08:23:15.059Z,98381.59
2022-10-17T08:25:23.608Z,98386.53
2022-10-17T08:27:31.815Z,98383.16
2022-10-17T08:29:43.005Z,98381.25
2022-10-17T08:31:54.173Z,98385.88
2022-10-17T08:34:08.817Z,98389.72
2022-10-17T08:36:18.809Z,98397.31
2022-10-17T08:38:27.939Z,98396.88
2022-10-17T08:40:38.531Z,98389.72
2022-10-17T08:43:01.540Z,98387.91
2022-10-17T08:45:20.447Z,98390.28
2022-10-17T08:47:32.757Z,98392.72
2022-10-17T08:49:48.686Z,98385.31
2022-10-17T08:52:01.952Z,98393.44
2022-10-17T08:54:18.424Z,98388.22
2022-10-17T08:56:48.880Z,98395.88
2022-10-17T08:58:57.695Z,98402.44
2022-10-17T09:01:22.699Z,98398.66
2022-10-17T09:03:42.393Z,98403.50
2022-10-17T09:05:56.669Z,98406.09
2022-10-17T09:08:21.815Z,98409.53
2022-10-17T09:10:41.119Z,98412.09
2022-10-17T09:12:55.461Z,98428.72
2022-10-17T09:15:24.240Z,98444.09
2022-10-17T09:17:45.073Z,98426.44
2022-10-17T09:20:02.267Z,98429.38
2022-10-17T09:22:16.340Z,98436.16
2022-10-17T09:24:30.935Z,98443.00
2022-10-17T09:26:40.042Z,98427.00
2022-10-17T09:28:55.259Z,98423.63
2022-10-17T09:31:06.948Z,98420.00
2022-10-17T09:33:34.880Z,98431.09
2022-10-17T09:35:45.161Z,98425.22
2022-10-17T09:37:53.911Z,98422.81
2022-10-17T09:40:03.169Z,98432.53
2022-10-17T09:42:17.560Z,98431.59
2022-10-17T09:44:28.121Z,98437.59
2022-10-17T09:46:41.053Z,98437.88
2022-10-17T09:48:55.023Z,98436.50
2022-10-17T09:51:15.168Z,98449.81
2022-10-17T09:53:36.586Z,98444.56
2022-10-17T09:55:48.518Z,98451.91
2022-10-17T09:58:01.688Z,98428.25
2022-10-17T10:00:10.981Z,98408.06
2022-10-17T10:02:24.436Z,98403.75
2022-10-17T10:04:46.741Z,98405.09
2022-10-17T10:07:09.897Z,98405.19
2022-10-17T10:09:27.633Z,98405.34
2022-10-17T10:11:50.585Z,98412.19
2022-10-17T10:14:13.936Z,98411.41
2022-10-17T10:16:27.273Z,98423.44
2022-10-17T10:18:39.217Z,98420.72
2022-10-17T10:20:50.162Z,98418.75
2022-10-17T10:23:17.425Z,98428.56
2022-10-17T10:25:25.610Z,98425.44
2022-10-17T10:27:34.404Z,98432.97
2022-10-17T10:29:45.657Z,98425.69
2022-10-17T10:31:55.021Z,98420.78
2022-10-17T10:34:08.454Z,98415.81
2022-10-17T10:36:22.108Z,98417.25
2022-10-17T10:38:31.275Z,98416.78
2022-10-17T10:40:47.492Z,98420.06
2022-10-17T10:43:02.533Z,98418.78
2022-10-17T10:45:42.822Z,98424.78
2022-10-17T10:47:57.272Z,98428.72
2022-10-17T10:50:24.362Z,98425.59
2022-10-17T10:52:42.251Z,98425.97
2022-10-17T10:54:59.460Z,98425.13
2022-10-17T10:57:10.822Z,98437.25
2022-10-17T10:59:23.838Z,98432.75
2022-10-17T11:01:38.178Z,98436.88
2022-10-17T11:03:59.327Z,98427.34
2022-10-17T11:06:15.898Z,98425.56
2022-10-17T11:08:32.942Z,98429.16
2022-10-17T11:10:47.829Z,98432.84
2022-10-17T11:13:03.517Z,98425.91
2022-10-17T11:15:23.601Z,98421.91
2022-10-17T11:17:38.625Z,98414.09
2022-10-17T11:19:53.041Z,98410.88
2022-10-17T11:22:12.517Z,98411.75
2022-10-17T11:24:27.787Z,98413.91
2022-10-17T11:26:43.530Z,98407.09
2022-10-17T11:28:52.077Z,98400.25
2022-10-17T11:31:07.973Z,98408.09
2022-10-17T11:33:21.627Z,98392.09
2022-10-17T11:35:33.827Z,98395.63
2022-10-17T11:37:49.054Z,98402.63
2022-10-17T11:40:05.536Z,98397.28
2022-10-17T11:42:17.090Z,98394.75
2022-10-17T11:44:30.526Z,98396.66
2022-10-17T11:46:40.396Z,98398.22
2022-10-17T11:49:04.199Z,98389.88
2022-10-17T11:53:53.936Z,98389.25
2022-10-17T11:56:05.947Z,98388.00
2022-10-17T11:58:37.437Z,98386.19
2022-10-17T12:01:03.798Z,98390.84
2022-10-17T12:03:26.829Z,98388.09
2022-10-17T12:05:41.998Z,98398.34
2022-10-17T12:07:54.274Z,98406.91
2022-10-17T12:10:11.678Z,98396.41
2022-10-17T12:12:32.581Z,98417.34
2022-10-17T12:14:43.930Z,98415.69
2022-10-17T12:16:52.166Z,98448.31
2022-10-17T12:19:25.146Z,98440.75
2022-10-17T12:22:05.172Z,98438.31
2022-10-17T12:24:31.289Z,98433.00
2022-10-17T12:26:40.292Z,98427.97
2022-10-17T12:28:52.306Z,98434.25
2022-10-17T12:31:05.942Z,98427.13
2022-10-17T12:33:23.893Z,98424.41
2022-10-17T12:35:34.927Z,98411.72
2022-10-17T12:38:22.191Z,98417.28
2022-10-17T12:40:52.989Z,98417.66
2022-10-17T12:43:01.554Z,98417.66
2022-10-17T12:45:49.449Z,98428.72
2022-10-17T12:48:00.416Z,98413.25
2022-10-17T12:50:50.852Z,98420.56
2022-10-17T12:53:08.652Z,98428.03
2022-10-17T12:55:20.265Z,98422.59
2022-10-17T12:57:36.636Z,98424.66
2022-10-17T12:59:47.056Z,98425.16
2022-10-17T13:02:01.061Z,98423.31
2022-10-17T13:04:13.784Z,98417.00
2022-10-17T13:06:25.771Z,98424.31
2022-10-17T13:08:36.786Z,98421.59
2022-10-17T13:10:51.763Z,98417.38
2022-10-17T13:13:08.860Z,98431.81
2022-10-17T13:15:21.703Z,98425.38
2022-10-17T13:17:31.506Z,98428.78
2022-10-17T13:19:47.933Z,98429.09
2022-10-17T13:22:05.312Z,98428.44
2022-10-17T13:24:24.970Z,98427.88
2022-10-17T13:26:33.616Z,98432.66
2022-10-17T13:28:42.178Z,98427.41
2022-10-17T13:30:52.786Z,98435.19
2022-10-17T13:33:02.151Z,98438.63
2022-10-17T13:35:17.276Z,98431.81
2022-10-17T13:37:25.507Z,98443.22
2022-10-17T13:40:00.362Z,98443.53
2022-10-17T13:42:17.422Z,98435.06
2022-10-17T13:44:28.195Z,98439.63
2022-10-17T13:46:39.102Z,98452.03
2022-10-17T13:48:49.002Z,98450.16
2022-10-17T13:51:04.492Z,98447.97
2022-10-17T13:53:33.314Z,98450.19
2022-10-17T13:55:41.952Z,98421.94
2022-10-17T13:57:52.881Z,98420.06
2022-10-17T14:00:09.926Z,98419.66
2022-10-17T14:02:24.525Z,98420.38
2022-10-17T14:04:50.269Z,98422.91
2022-10-17T14:07:03.460Z,98422.38
2022-10-17T14:09:24.155Z,98426.91
2022-10-17T14:11:38.816Z,98431.50
2022-10-17T14:13:53.528Z,98425.22
2022-10-17T14:16:06.329Z,98422.31
2022-10-17T14:18:23.249Z,98430.78
2022-10-17T14:21:08.220Z,98421.22
2022-10-17T14:23:22.790Z,98422.38
2022-10-17T14:25:35.505Z,98431.41
2022-10-17T14:28:03.689Z,98430.81
2022-10-17T14:30:55.878Z,98428.59
2022-10-17T14:33:06.654Z,98439.66
2022-10-17T14:35:41.149Z,98447.38
2022-10-17T14:37:50.815Z,98442.91
2022-10-17T14:40:03.998Z,98431.69
2022-10-17T14:42:21.940Z,98431.81
2022-10-17T14:44:33.449Z,98427.25
2022-10-17T14:46:50.690Z,98426.81
2022-10-17T14:49:05.469Z,98431.03
2022-10-17T14:51:17.143Z,98429.28
2022-10-17T14:53:25.491Z,98433.50
2022-10-17T14:55:38.212Z,98432.09
2022-10-17T14:57:48.419Z,98427.38
2022-10-17T14:59:58.848Z,98431.94
2022-10-17T15:02:07.169Z,98442.78
2022-10-17T15:04:15.653Z,98448.28
2022-10-17T15:06:27.655Z,98438.09
2022-10-17T15:08:38.567Z,98439.94
2022-10-17T15:10:51.133Z,98441.44
2022-10-17T15:13:26.204Z,98443.97
2022-10-17T15:15:28.583Z,98445.44
2022-10-17T15:17:37.238Z,98447.66
2022-10-17T15:19:45.728Z,98453.53
2022-10-17T15:21:54.439Z,98450.09
2022-10-17T15:24:04.534Z,98454.28
2022-10-17T15:26:20.044Z,98450.50
2022-10-17T15:28:28.696Z,98452.81
2022-10-17T15:30:39.992Z,98452.09
2022-10-17T15:32:48.367Z,98455.69
2022-10-17T15:34:56.559Z,98455.44
2022-10-17T15:37:04.802Z,98445.22
2022-10-17T15:39:15.095Z,98447.34
2022-10-17T15:41:27.886Z,98450.00
2022-10-17T15:43:36.144Z,98455.41
2022-10-17T15:45:44.570Z,98448.63
2022-10-17T15:47:55.619Z,98453.19
2022-10-17T15:50:04.924Z,98451.78
2022-10-17T15:52:13.730Z,98445.28
2022-10-17T15:54:22.377Z,98444.75
2022-10-17T15:56:36.524Z,98439.28
2022-10-17T15:58:44.737Z,98446.00
2022-10-17T16:00:52.821Z,98440.03
2022-10-17T16:03:03.265Z,98450.59
2022-10-17T16:05:17.196Z,98439.13
2022-10-17T16:07:25.832Z,98442.09
2022-10-17T16:09:34.557Z,98449.94
2022-10-17T16:11:46.743Z,98446.25
2022-10-17T16:13:57.397Z,98442.38
2022-10-17T16:16:05.441Z,98439.09
2022-10-17T16:18:13.806Z,98438.25
2022-10-17T16:20:22.771Z,98447.78
2022-10-17T16:22:36.775Z,98452.88
2022-10-17T16:24:45.091Z,98447.19
2022-10-17T16:26:55.971Z,98458.13
2022-10-17T16:29:05.106Z,98456.81
2022-10-17T16:31:21.325Z,98462.94
2022-10-17T16:33:31.614Z,98461.38
2022-10-17T16:35:39.835Z,98462.63
2022-10-17T16:37:48.239Z,98460.91
2022-10-17T16:39:56.538Z,98465.97
2022-10-17T16:42:07.327Z,98467.28
2022-10-17T16:44:18.026Z,98471.19
2022-10-17T16:46:27.404Z,98477.66
2022-10-17T16:48:35.654Z,98470.06
2022-10-17T16:50:43.905Z,98479.72
2022-10-17T16:52:52.344Z,98472.31
2022-10-17T16:55:00.362Z,98473.06
2022-10-17T16:57:11.558Z,98471.00
2022-10-17T16:59:19.783Z,98485.31
2022-10-17T17:01:29.536Z,98483.25
2022-10-17T17:03:38.811Z,98488.63
2022-10-17T17:05:52.734Z,98494.78
2022-10-17T17:08:01.132Z,98495.75
2022-10-17T17:10:10.261Z,98490.50
2022-10-17T17:12:21.008Z,98499.25
2022-10-17T17:14:29.548Z,98503.91
2022-10-17T17:16:38.694Z,98510.34
2022-10-17T17:18:48.070Z,98505.69
2022-10-17T17:21:01.484Z,98503.25
2022-10-17T17:23:13.700Z,98499.50
2022-10-17T17:25:24.950Z,98506.72
2022-10-17T17:27:36.021Z,98500.13
2022-10-17T17:29:44.341Z,98493.28
2022-10-17T17:31:53.591Z,98496.00
2022-10-17T17:34:03.004Z,98504.28
2022-10-17T17:36:13.417Z,98506.72
2022-10-17T17:38:21.561Z,98505.03
2022-10-17T17:40:30.002Z,98513.22
2022-10-17T17:42:40.986Z,98503.56
2022-10-17T17:44:49.153Z,98501.00
2022-10-17T17:46:57.241Z,98504.91
2022-10-17T17:49:05.362Z,98513.97
2022-10-17T17:51:16.760Z,98517.00
2022-10-17T17:53:25.667Z,98515.78
2022-10-17T17:55:34.435Z,98523.63
2022-10-17T17:57:46.667Z,98520.31
2022-10-17T17:59:55.318Z,98523.63
2022-10-17T18:02:06.639Z,98519.44
2022-10-17T18:04:17.114Z,98517.84
2022-10-17T18:06:26.542Z,98524.41
2022-10-17T18:08:35.743Z,98525.78
2022-10-17T18:10:44.833Z,98527.13
2022-10-17T18:12:56.756Z,98528.34
2022-10-17T18:15:06.679Z,98538.72
2022-10-17T18:17:16.691Z,98534.81
2022-10-17T18:19:28.634Z,98541.31
2022-10-17T18:21:38.290Z,98537.88
2022-10-17T18:23:49.852Z,98536.50
2022-10-17T18:26:01.092Z,98544.09
2022-10-17T18:28:12.295Z,98541.03
2022-10-17T18:30:22.541Z,98534.22
2022-10-17T18:32:35.164Z,98544.00
2022-10-17T18:34:46.797Z,98542.03
2022-10-17T18:36:56.249Z,98541.16
2022-10-17T18:39:05.906Z,98548.44
2022-10-17T18:41:16.358Z,98548.69
2022-10-17T18:43:28.214Z,98548.06
2022-10-17T18:45:37.249Z,98552.06
2022-10-17T18:47:47.594Z,98552.56
2022-10-17T18:49:56.411Z,98551.09
2022-10-17T18:52:04.988Z,98559.28
2022-10-17T18:54:17.280Z,98550.88
2022-10-17T18:56:26.604Z,98549.38
2022-10-17T18:58:37.256Z,98554.81
2022-10-17T19:00:48.697Z,98560.13
2022-10-17T19:02:56.602Z,98551.75
2022-10-17T19:05:04.674Z,98555.56
2022-10-17T19:07:13.029Z,98563.34
2022-10-17T19:09:21.600Z,98563.97
2022-10-17T19:11:31.658Z,98564.47
2022-10-17T19:13:43.388Z,98567.13
2022-10-17T19:15:51.621Z,98567.94
2022-10-17T19:18:00.098Z,98563.50
2022-10-17T19:20:09.648Z,98563.50
2022-10-17T19:22:18.041Z,98565.75
2022-10-17T19:24:28.070Z,98568.44
2022-10-17T19:26:39.895Z,98567.81
2022-10-17T19:28:52.418Z,98568.88
2022-10-17T19:31:00.882Z,98563.50
2022-10-17T19:33:09.499Z,98563.13
2022-10-17T19:35:17.876Z,98566.56
2022-10-17T19:37:25.978Z,98561.53
2022-10-17T19:39:34.535Z,98559.50
2022-10-17T19:41:43.414Z,98560.44
2022-10-17T19:43:54.796Z,98561.84
2022-10-17T19:46:05.571Z,98563.09
2022-10-17T19:48:13.844Z,98560.13
2022-10-17T19:50:22.485Z,98564.69
2022-10-17T19:52:31.200Z,98567.50
2022-10-17T19:54:42.234Z,98562.06
2022-10-17T19:56:56.737Z,98560.00
2022-10-17T19:59:09.313Z,98560.81
2022-10-17T20:01:22.713Z,98553.31
2022-10-17T20:03:31.907Z,98551.34
2022-10-17T20:05:43.412Z,98545.44
2022-10-17T20:07:51.692Z,98549.53
2022-10-17T20:10:00.271Z,98556.19
2022-10-17T20:12:08.824Z,98542.38
2022-10-17T20:14:20.501Z,98540.28
2022-10-17T20:16:31.585Z,98540.44
2022-10-17T20:18:40.932Z,98544.94
2022-10-17T20:20:49.993Z,98544.16
2022-10-17T20:22:58.857Z,98538.94
2022-10-17T20:25:08.013Z,98544.16
2022-10-17T20:27:16.076Z,98539.44
2022-10-17T20:29:28.186Z,98537.94
2022-10-17T20:31:36.593Z,98542.44
2022-10-17T20:33:46.671Z,98541.56
2022-10-17T20:35:54.991Z,98541.84
2022-10-17T20:38:03.607Z,98548.66
2022-10-17T20:42:41.530Z,98548.22
2022-10-17T20:44:52.560Z,98549.31
2022-10-17T20:47:02.480Z,98552.22
2022-10-17T20:49:12.176Z,98550.22
2022-10-17T20:51:20.826Z,98556.97
2022-10-17T20:53:37.131Z,98543.06
2022-10-17T20:55:46.984Z,98543.72
2022-10-17T20:57:56.368Z,98538.91
2022-10-17T21:00:08.785Z,98535.59
2022-10-17T21:02:18.075Z,98537.31
2022-10-17T21:04:46.285Z,98535.91
2022-10-17T21:06:55.111Z,98536.78
2022-10-17T21:09:04.273Z,98531.34
2022-10-17T21:11:15.180Z,98528.22
2022-10-17T21:13:24.687Z,98525.19
2022-10-17T21:15:35.274Z,98524.97
2022-10-17T21:17:46.115Z,98525.84
2022-10-17T21:19:54.694Z,98526.03
2022-10-17T21:22:02.797Z,98520.69
2022-10-17T21:24:14.348Z,98515.66
2022-10-17T21:26:22.890Z,98507.81
2022-10-17T21:28:31.228Z,98502.69
2022-10-17T21:30:42.305Z,98505.00
2022-10-17T21:32:52.095Z,98514.13
2022-10-17T21:35:00.773Z,98514.31
2022-10-17T21:37:09.069Z,98510.47
2022-10-17T21:39:18.559Z,98510.78
2022-10-17T21:41:29.099Z,98514.59
2022-10-17T21:43:38.496Z,98508.47
2022-10-17T21:45:49.566Z,98504.75
2022-10-17T21:48:12.554Z,98493.22
2022-10-17T21:50:21.191Z,98495.28
2022-10-17T21:52:29.972Z,98492.59
2022-10-17T21:54:38.205Z,98497.97
2022-10-17T21:56:46.944Z,98498.16
2022-10-17T21:58:56.137Z,98501.78
2022-10-17T22:01:12.229Z,98506.28
2022-10-17T22:03:20.393Z,98506.78
2022-10-17T22:05:28.383Z,98507.00
2022-10-17T22:07:36.897Z,98508.03
2022-10-17T22:09:47.885Z,98497.44
2022-10-17T22:11:58.792Z,98486.66
2022-10-17T22:14:11.652Z,98487.19
2022-10-17T22:16:22.512Z,98483.56
2022-10-17T22:18:31.906Z,98486.88
2022-10-17T22:20:41.577Z,98471.59
2022-10-17T22:22:49.742Z,98480.50
2022-10-17T22:24:59.806Z,98476.72
2022-10-17T22:27:10.505Z,98478.44
2022-10-17T22:29:19.251Z,98480.44
2022-10-17T22:31:30.119Z,98466.03
2022-10-17T22:33:40.138Z,98469.25
2022-10-17T22:35:49.190Z,98463.34
2022-10-17T22:37:57.694Z,98471.38
2022-10-17T22:40:06.030Z,98472.13
2022-10-17T22:42:14.283Z,98471.56
2022-10-17T22:44:22.568Z,98465.81
2022-10-17T22:46:33.598Z,98463.25
2022-10-17T22:48:42.928Z,98468.91
2022-10-17T22:50:52.545Z,98458.94
2022-10-17T22:53:00.638Z,98472.66
2022-10-17T22:55:12.401Z,98471.69
2022-10-17T22:57:20.589Z,98467.13
2022-10-17T22:59:30.304Z,98469.63
2022-10-17T23:01:41.454Z,98467.91
2022-10-17T23:03:51.195Z,98473.00
2022-10-17T23:06:00.353Z,98455.69
2022-10-17T23:08:08.978Z,98448.47
2022-10-17T23:10:18.845Z,98455.63
2022-10-17T23:12:27.302Z,98440.47
2022-10-17T23:14:37.621Z,98440.53
2022-10-17T23:16:50.432Z,98448.97
2022-10-17T23:18:58.588Z,98447.06
2022-10-17T23:21:07.012Z,98447.38
2022-10-17T23:23:15.735Z,98446.34
2022-10-17T23:25:26.046Z,98444.84
2022-10-17T23:27:34.253Z,98434.16
2022-10-17T23:29:44.035Z,98441.22
2022-10-17T23:31:56.915Z,98437.13
2022-10-17T23:34:05.125Z,98438.84
2022-10-17T23:36:14.781Z,98436.34
2022-10-17T23:38:22.957Z,98426.38
2022-10-17T23:40:32.603Z,98424.78
2022-10-17T23:42:44.104Z,98418.00
2022-10-17T23:44:52.396Z,98414.56
2022-10-17T23:47:05.038Z,98409.63
2022-10-17T23:49:13.958Z,98406.09
2022-10-17T23:51:24.329Z,98406.41
2022-10-17T23:53:32.611Z,98406.41
2022-10-17T23:55:41.070Z,98401.84
2022-10-17T23:57:51.905Z,98400.97
